Aviation Digital Data Service (ADDS)

Output produced by METARs form (0018 UTC 20 April 2019)
found at http://www.aviationweather.gov/metar/data/
 
Forecast for: TAPA (COOLIDGE/ANTIGUA, AG)
Text: TAF TAPA 192300Z 2000/2024 09013KT 9999 SCT021
Forecast period: 0000 UTC 20 April 2019 to 0000 UTC 21 April 2019
Forecast type: FROM: standard forecast or significant change
Winds: from the E (90 degrees) at 15 MPH (13 knots; 6.7 m/s)
Visibility: 6 or more miles 10+ km)
Ceiling: at least 12,000 feet AGL
Clouds: scattered clouds at 2100 feet AGL
Weather: no significant weather forecast for this period
Text: PROB30
Forecast period: 0300 to 1600 UTC 20 April 2019
Forecast type: TEMPORARY: The following changes expected for less than half the time period
Visibility: missing
Ceiling: unknown
Clouds: missing
Weather: SHRA  (rain showers)